sensor_id;sensor_type;location;lat;lon;timestamp;P1;durP1;ratioP1;P2;durP2;ratioP2
36457;SDS011;22480;50.546;12.292;2023-06-19T00:02:06;7.55;;;6.75;;
36457;SDS011;22480;50.546;12.292;2023-06-19T00:04:32;7.75;;;6.95;;
36457;SDS011;22480;50.546;12.292;2023-06-19T00:06:59;9.18;;;6.90;;
36457;SDS011;22480;50.546;12.292;2023-06-19T00:09:25;8.70;;;7.57;;
36457;SDS011;22480;50.546;12.292;2023-06-19T00:11:50;9.00;;;6.82;;
36457;SDS011;22480;50.546;12.292;2023-06-19T00:14:16;9.13;;;6.97;;
36457;SDS011;22480;50.546;12.292;2023-06-19T00:16:43;9.55;;;7.63;;
36457;SDS011;22480;50.546;12.292;2023-06-19T00:19:09;8.35;;;7.20;;
36457;SDS011;22480;50.546;12.292;2023-06-19T00:21:35;8.68;;;7.05;;
36457;SDS011;22480;50.546;12.292;2023-06-19T00:24:02;11.05;;;7.63;;
36457;SDS011;22480;50.546;12.292;2023-06-19T00:26:28;9.10;;;7.00;;
36457;SDS011;22480;50.546;12.292;2023-06-19T00:28:54;7.75;;;6.93;;
36457;SDS011;22480;50.546;12.292;2023-06-19T00:31:20;8.32;;;7.30;;
36457;SDS011;22480;50.546;12.292;2023-06-19T00:33:48;8.98;;;6.90;;
36457;SDS011;22480;50.546;12.292;2023-06-19T00:36:14;11.15;;;7.65;;
36457;SDS011;22480;50.546;12.292;2023-06-19T00:38:45;9.35;;;7.50;;
36457;SDS011;22480;50.546;12.292;2023-06-19T00:41:11;12.27;;;6.80;;
36457;SDS011;22480;50.546;12.292;2023-06-19T00:43:37;9.40;;;6.93;;
36457;SDS011;22480;50.546;12.292;2023-06-19T00:46:03;7.97;;;6.80;;
36457;SDS011;22480;50.546;12.292;2023-06-19T00:48:29;8.73;;;6.80;;
36457;SDS011;22480;50.546;12.292;2023-06-19T00:50:56;8.80;;;7.55;;
36457;SDS011;22480;50.546;12.292;2023-06-19T00:53:23;8.38;;;7.28;;
36457;SDS011;22480;50.546;12.292;2023-06-19T00:55:53;8.40;;;7.53;;
36457;SDS011;22480;50.546;12.292;2023-06-19T00:58:22;8.77;;;7.18;;
36457;SDS011;22480;50.546;12.292;2023-06-19T01:00:48;9.48;;;6.72;;
36457;SDS011;22480;50.546;12.292;2023-06-19T01:03:14;8.45;;;7.43;;
36457;SDS011;22480;50.546;12.292;2023-06-19T01:05:42;8.90;;;7.22;;
36457;SDS011;22480;50.546;12.292;2023-06-19T01:08:14;7.53;;;6.60;;
36457;SDS011;22480;50.546;12.292;2023-06-19T01:11:24;7.18;;;6.45;;
36457;SDS011;22480;50.546;12.292;2023-06-19T01:13:55;8.15;;;6.93;;
36457;SDS011;22480;50.546;12.292;2023-06-19T01:16:25;7.93;;;7.13;;
36457;SDS011;22480;50.546;12.292;2023-06-19T01:18:53;7.05;;;6.28;;
36457;SDS011;22480;50.546;12.292;2023-06-19T01:21:19;8.25;;;6.60;;
36457;SDS011;22480;50.546;12.292;2023-06-19T01:23:45;9.85;;;7.03;;
36457;SDS011;22480;50.546;12.292;2023-06-19T01:26:12;6.78;;;6.03;;
36457;SDS011;22480;50.546;12.292;2023-06-19T01:28:39;7.28;;;6.55;;
36457;SDS011;22480;50.546;12.292;2023-06-19T01:31:09;7.60;;;6.75;;
36457;SDS011;22480;50.546;12.292;2023-06-19T01:33:39;6.95;;;6.15;;
36457;SDS011;22480;50.546;12.292;2023-06-19T01:36:07;7.65;;;6.93;;
36457;SDS011;22480;50.546;12.292;2023-06-19T01:38:34;7.63;;;6.85;;
36457;SDS011;22480;50.546;12.292;2023-06-19T01:41:01;9.13;;;6.60;;
36457;SDS011;22480;50.546;12.292;2023-06-19T01:43:28;6.85;;;6.18;;
36457;SDS011;22480;50.546;12.292;2023-06-19T01:45:56;6.77;;;6.07;;
36457;SDS011;22480;50.546;12.292;2023-06-19T01:48:23;7.40;;;6.05;;
36457;SDS011;22480;50.546;12.292;2023-06-19T01:50:50;8.40;;;7.40;;
36457;SDS011;22480;50.546;12.292;2023-06-19T01:53:16;9.50;;;7.60;;
36457;SDS011;22480;50.546;12.292;2023-06-19T01:55:42;7.10;;;6.28;;
36457;SDS011;22480;50.546;12.292;2023-06-19T01:58:08;7.30;;;6.57;;
36457;SDS011;22480;50.546;12.292;2023-06-19T02:00:33;7.85;;;7.05;;
36457;SDS011;22480;50.546;12.292;2023-06-19T02:03:02;7.80;;;6.57;;
36457;SDS011;22480;50.546;12.292;2023-06-19T02:05:29;7.95;;;7.15;;
36457;SDS011;22480;50.546;12.292;2023-06-19T02:07:56;7.32;;;6.55;;
36457;SDS011;22480;50.546;12.292;2023-06-19T02:10:21;7.32;;;6.63;;
36457;SDS011;22480;50.546;12.292;2023-06-19T02:12:47;7.60;;;6.28;;
36457;SDS011;22480;50.546;12.292;2023-06-19T02:15:13;7.70;;;6.85;;
36457;SDS011;22480;50.546;12.292;2023-06-19T02:17:38;7.75;;;6.95;;
36457;SDS011;22480;50.546;12.292;2023-06-19T02:20:04;8.40;;;7.32;;
36457;SDS011;22480;50.546;12.292;2023-06-19T02:22:34;8.88;;;7.35;;
36457;SDS011;22480;50.546;12.292;2023-06-19T02:25:00;7.45;;;6.65;;
36457;SDS011;22480;50.546;12.292;2023-06-19T02:27:26;7.82;;;7.03;;
36457;SDS011;22480;50.546;12.292;2023-06-19T02:29:52;7.57;;;6.82;;
36457;SDS011;22480;50.546;12.292;2023-06-19T02:32:17;7.75;;;6.95;;
36457;SDS011;22480;50.546;12.292;2023-06-19T02:34:44;10.48;;;8.13;;
36457;SDS011;22480;50.546;12.292;2023-06-19T02:37:10;10.18;;;8.50;;
36457;SDS011;22480;50.546;12.292;2023-06-19T02:39:36;10.68;;;8.60;;
36457;SDS011;22480;50.546;12.292;2023-06-19T02:42:02;11.15;;;8.13;;
36457;SDS011;22480;50.546;12.292;2023-06-19T02:44:27;8.38;;;7.57;;
36457;SDS011;22480;50.546;12.292;2023-06-19T02:46:53;12.13;;;8.85;;
36457;SDS011;22480;50.546;12.292;2023-06-19T02:49:19;8.77;;;7.65;;
36457;SDS011;22480;50.546;12.292;2023-06-19T02:51:45;9.70;;;7.40;;
36457;SDS011;22480;50.546;12.292;2023-06-19T02:54:11;10.48;;;8.40;;
36457;SDS011;22480;50.546;12.292;2023-06-19T02:56:37;8.32;;;7.43;;
36457;SDS011;22480;50.546;12.292;2023-06-19T02:59:03;8.85;;;7.95;;
36457;SDS011;22480;50.546;12.292;2023-06-19T03:01:29;11.82;;;9.07;;
36457;SDS011;22480;50.546;12.292;2023-06-19T03:03:55;9.85;;;8.85;;
36457;SDS011;22480;50.546;12.292;2023-06-19T03:06:21;10.27;;;9.25;;
36457;SDS011;22480;50.546;12.292;2023-06-19T03:08:46;10.23;;;8.07;;
36457;SDS011;22480;50.546;12.292;2023-06-19T03:11:12;10.77;;;7.80;;
36457;SDS011;22480;50.546;12.292;2023-06-19T03:16:10;10.50;;;8.48;;
36457;SDS011;22480;50.546;12.292;2023-06-19T03:18:36;10.00;;;7.57;;
36457;SDS011;22480;50.546;12.292;2023-06-19T03:21:02;9.23;;;8.32;;
36457;SDS011;22480;50.546;12.292;2023-06-19T03:23:28;8.73;;;7.57;;
36457;SDS011;22480;50.546;12.292;2023-06-19T03:25:53;10.38;;;8.25;;
36457;SDS011;22480;50.546;12.292;2023-06-19T03:28:19;9.20;;;7.43;;
36457;SDS011;22480;50.546;12.292;2023-06-19T03:30:45;8.30;;;7.50;;
36457;SDS011;22480;50.546;12.292;2023-06-19T03:33:13;8.35;;;7.47;;
36457;SDS011;22480;50.546;12.292;2023-06-19T03:35:41;8.68;;;7.70;;
36457;SDS011;22480;50.546;12.292;2023-06-19T03:38:12;9.00;;;8.07;;
36457;SDS011;22480;50.546;12.292;2023-06-19T03:40:38;9.80;;;8.20;;
36457;SDS011;22480;50.546;12.292;2023-06-19T03:43:11;8.27;;;7.43;;
36457;SDS011;22480;50.546;12.292;2023-06-19T03:45:38;9.20;;;7.85;;
36457;SDS011;22480;50.546;12.292;2023-06-19T03:48:04;8.73;;;7.70;;
36457;SDS011;22480;50.546;12.292;2023-06-19T03:50:30;12.23;;;7.38;;
36457;SDS011;22480;50.546;12.292;2023-06-19T03:52:55;8.20;;;7.40;;
36457;SDS011;22480;50.546;12.292;2023-06-19T03:55:21;8.57;;;7.43;;
36457;SDS011;22480;50.546;12.292;2023-06-19T03:57:48;8.60;;;7.63;;
36457;SDS011;22480;50.546;12.292;2023-06-19T04:00:16;10.20;;;7.47;;
36457;SDS011;22480;50.546;12.292;2023-06-19T04:02:43;9.07;;;8.17;;
36457;SDS011;22480;50.546;12.292;2023-06-19T04:07:43;10.27;;;8.23;;
36457;SDS011;22480;50.546;12.292;2023-06-19T04:10:09;9.85;;;8.25;;
36457;SDS011;22480;50.546;12.292;2023-06-19T04:12:38;7.88;;;7.07;;
36457;SDS011;22480;50.546;12.292;2023-06-19T04:15:05;9.30;;;7.57;;
36457;SDS011;22480;50.546;12.292;2023-06-19T04:17:32;9.40;;;7.60;;
36457;SDS011;22480;50.546;12.292;2023-06-19T04:19:58;8.38;;;7.50;;
36457;SDS011;22480;50.546;12.292;2023-06-19T04:22:23;11.57;;;8.50;;
36457;SDS011;22480;50.546;12.292;2023-06-19T04:24:49;8.98;;;6.97;;
36457;SDS011;22480;50.546;12.292;2023-06-19T04:27:16;8.48;;;6.60;;
36457;SDS011;22480;50.546;12.292;2023-06-19T04:29:41;8.68;;;7.78;;
36457;SDS011;22480;50.546;12.292;2023-06-19T04:32:07;10.43;;;7.75;;
36457;SDS011;22480;50.546;12.292;2023-06-19T04:34:40;9.70;;;7.50;;
36457;SDS011;22480;50.546;12.292;2023-06-19T04:37:11;8.40;;;7.18;;
36457;SDS011;22480;50.546;12.292;2023-06-19T04:39:37;9.93;;;8.30;;
36457;SDS011;22480;50.546;12.292;2023-06-19T04:42:03;8.52;;;7.45;;
36457;SDS011;22480;50.546;12.292;2023-06-19T04:44:29;8.02;;;7.22;;
36457;SDS011;22480;50.546;12.292;2023-06-19T04:46:59;10.23;;;7.90;;
36457;SDS011;22480;50.546;12.292;2023-06-19T04:49:28;14.15;;;8.18;;
36457;SDS011;22480;50.546;12.292;2023-06-19T04:51:55;9.38;;;6.78;;
36457;SDS011;22480;50.546;12.292;2023-06-19T04:54:24;8.60;;;6.50;;
36457;SDS011;22480;50.546;12.292;2023-06-19T04:56:51;12.00;;;7.93;;
36457;SDS011;22480;50.546;12.292;2023-06-19T04:59:17;7.82;;;7.00;;
36457;SDS011;22480;50.546;12.292;2023-06-19T05:01:43;10.45;;;7.63;;
36457;SDS011;22480;50.546;12.292;2023-06-19T05:04:09;8.32;;;7.43;;
36457;SDS011;22480;50.546;12.292;2023-06-19T05:06:38;7.57;;;6.78;;
36457;SDS011;22480;50.546;12.292;2023-06-19T05:09:05;6.97;;;6.28;;
36457;SDS011;22480;50.546;12.292;2023-06-19T05:11:31;8.15;;;5.95;;
36457;SDS011;22480;50.546;12.292;2023-06-19T05:13:56;7.50;;;6.70;;
36457;SDS011;22480;50.546;12.292;2023-06-19T05:16:22;6.55;;;5.60;;
36457;SDS011;22480;50.546;12.292;2023-06-19T05:18:49;8.70;;;6.43;;
36457;SDS011;22480;50.546;12.292;2023-06-19T05:21:16;10.60;;;6.13;;
36457;SDS011;22480;50.546;12.292;2023-06-19T05:23:42;7.13;;;6.10;;
36457;SDS011;22480;50.546;12.292;2023-06-19T05:26:08;6.40;;;5.80;;
36457;SDS011;22480;50.546;12.292;2023-06-19T05:28:33;7.28;;;6.47;;
36457;SDS011;22480;50.546;12.292;2023-06-19T05:30:59;6.43;;;5.80;;
36457;SDS011;22480;50.546;12.292;2023-06-19T05:33:25;7.13;;;5.85;;
36457;SDS011;22480;50.546;12.292;2023-06-19T05:35:52;7.07;;;6.07;;
36457;SDS011;22480;50.546;12.292;2023-06-19T05:38:19;7.25;;;5.55;;
36457;SDS011;22480;50.546;12.292;2023-06-19T05:40:45;7.05;;;5.80;;
36457;SDS011;22480;50.546;12.292;2023-06-19T05:43:11;6.68;;;5.97;;
36457;SDS011;22480;50.546;12.292;2023-06-19T05:45:37;6.97;;;5.35;;
36457;SDS011;22480;50.546;12.292;2023-06-19T05:48:03;6.78;;;5.97;;
36457;SDS011;22480;50.546;12.292;2023-06-19T05:50:29;9.18;;;5.40;;
36457;SDS011;22480;50.546;12.292;2023-06-19T05:52:56;5.93;;;5.32;;
36457;SDS011;22480;50.546;12.292;2023-06-19T05:55:21;8.13;;;5.38;;
36457;SDS011;22480;50.546;12.292;2023-06-19T05:57:50;6.80;;;5.70;;
36457;SDS011;22480;50.546;12.292;2023-06-19T06:00:16;6.28;;;5.50;;
36457;SDS011;22480;50.546;12.292;2023-06-19T06:02:42;7.28;;;5.38;;
36457;SDS011;22480;50.546;12.292;2023-06-19T06:05:07;6.65;;;5.85;;
36457;SDS011;22480;50.546;12.292;2023-06-19T06:07:34;6.22;;;5.40;;
36457;SDS011;22480;50.546;12.292;2023-06-19T06:10:00;7.70;;;5.50;;
36457;SDS011;22480;50.546;12.292;2023-06-19T06:12:25;7.35;;;5.75;;
36457;SDS011;22480;50.546;12.292;2023-06-19T06:14:51;8.52;;;5.68;;
36457;SDS011;22480;50.546;12.292;2023-06-19T06:17:17;8.20;;;6.10;;
36457;SDS011;22480;50.546;12.292;2023-06-19T06:19:42;7.85;;;5.65;;
36457;SDS011;22480;50.546;12.292;2023-06-19T06:22:08;9.63;;;6.00;;
36457;SDS011;22480;50.546;12.292;2023-06-19T06:24:34;6.60;;;5.28;;
36457;SDS011;22480;50.546;12.292;2023-06-19T06:26:59;6.53;;;5.38;;
36457;SDS011;22480;50.546;12.292;2023-06-19T06:29:25;6.25;;;5.10;;
36457;SDS011;22480;50.546;12.292;2023-06-19T06:31:51;8.73;;;7.47;;
36457;SDS011;22480;50.546;12.292;2023-06-19T06:34:18;5.65;;;5.07;;
36457;SDS011;22480;50.546;12.292;2023-06-19T06:36:44;6.57;;;5.43;;
36457;SDS011;22480;50.546;12.292;2023-06-19T06:39:10;6.63;;;5.10;;
36457;SDS011;22480;50.546;12.292;2023-06-19T06:41:36;6.07;;;5.15;;
36457;SDS011;22480;50.546;12.292;2023-06-19T06:44:04;9.50;;;6.35;;
36457;SDS011;22480;50.546;12.292;2023-06-19T06:46:30;6.18;;;5.00;;
36457;SDS011;22480;50.546;12.292;2023-06-19T06:48:56;6.72;;;5.47;;
36457;SDS011;22480;50.546;12.292;2023-06-19T06:51:21;6.93;;;5.68;;
36457;SDS011;22480;50.546;12.292;2023-06-19T06:53:47;9.25;;;5.40;;
36457;SDS011;22480;50.546;12.292;2023-06-19T06:56:13;6.47;;;5.00;;
36457;SDS011;22480;50.546;12.292;2023-06-19T06:58:39;6.53;;;5.78;;
36457;SDS011;22480;50.546;12.292;2023-06-19T07:01:04;6.57;;;5.50;;
36457;SDS011;22480;50.546;12.292;2023-06-19T07:03:30;6.72;;;5.22;;
36457;SDS011;22480;50.546;12.292;2023-06-19T07:05:57;7.45;;;5.15;;
36457;SDS011;22480;50.546;12.292;2023-06-19T07:08:23;6.07;;;5.18;;
36457;SDS011;22480;50.546;12.292;2023-06-19T07:10:49;7.85;;;5.13;;
36457;SDS011;22480;50.546;12.292;2023-06-19T07:13:14;5.25;;;4.75;;
36457;SDS011;22480;50.546;12.292;2023-06-19T07:15:40;7.78;;;4.90;;
36457;SDS011;22480;50.546;12.292;2023-06-19T07:18:06;6.35;;;4.88;;
36457;SDS011;22480;50.546;12.292;2023-06-19T07:20:32;8.45;;;5.22;;
36457;SDS011;22480;50.546;12.292;2023-06-19T07:22:58;6.63;;;5.32;;
36457;SDS011;22480;50.546;12.292;2023-06-19T07:25:25;5.93;;;5.00;;
36457;SDS011;22480;50.546;12.292;2023-06-19T07:27:51;5.85;;;5.25;;
36457;SDS011;22480;50.546;12.292;2023-06-19T07:30:16;6.82;;;5.05;;
36457;SDS011;22480;50.546;12.292;2023-06-19T07:32:42;6.15;;;5.63;;
36457;SDS011;22480;50.546;12.292;2023-06-19T07:35:08;6.82;;;5.57;;
36457;SDS011;22480;50.546;12.292;2023-06-19T07:37:34;8.23;;;5.00;;
36457;SDS011;22480;50.546;12.292;2023-06-19T07:40:00;12.50;;;6.13;;
36457;SDS011;22480;50.546;12.292;2023-06-19T07:42:25;6.22;;;5.38;;
36457;SDS011;22480;50.546;12.292;2023-06-19T07:44:51;6.97;;;5.53;;
36457;SDS011;22480;50.546;12.292;2023-06-19T07:47:17;6.20;;;5.40;;
36457;SDS011;22480;50.546;12.292;2023-06-19T07:49:44;8.55;;;5.72;;
36457;SDS011;22480;50.546;12.292;2023-06-19T07:52:11;6.03;;;5.43;;
36457;SDS011;22480;50.546;12.292;2023-06-19T07:54:47;7.07;;;5.65;;
36457;SDS011;22480;50.546;12.292;2023-06-19T07:57:13;9.27;;;5.40;;
36457;SDS011;22480;50.546;12.292;2023-06-19T07:59:39;6.20;;;5.55;;
36457;SDS011;22480;50.546;12.292;2023-06-19T08:02:05;7.82;;;5.78;;
36457;SDS011;22480;50.546;12.292;2023-06-19T08:04:30;6.72;;;5.95;;
36457;SDS011;22480;50.546;12.292;2023-06-19T08:06:56;7.68;;;6.38;;
36457;SDS011;22480;50.546;12.292;2023-06-19T08:09:22;8.48;;;5.68;;
36457;SDS011;22480;50.546;12.292;2023-06-19T08:11:47;7.38;;;5.60;;
36457;SDS011;22480;50.546;12.292;2023-06-19T08:14:13;7.40;;;6.70;;
36457;SDS011;22480;50.546;12.292;2023-06-19T08:16:38;6.40;;;5.60;;
36457;SDS011;22480;50.546;12.292;2023-06-19T08:19:04;6.95;;;5.82;;
36457;SDS011;22480;50.546;12.292;2023-06-19T08:21:30;6.53;;;5.90;;
36457;SDS011;22480;50.546;12.292;2023-06-19T08:23:56;8.68;;;6.18;;
36457;SDS011;22480;50.546;12.292;2023-06-19T08:26:21;7.47;;;6.13;;
36457;SDS011;22480;50.546;12.292;2023-06-19T08:28:47;8.27;;;6.10;;
36457;SDS011;22480;50.546;12.292;2023-06-19T08:31:13;9.02;;;6.53;;
36457;SDS011;22480;50.546;12.292;2023-06-19T08:33:39;10.27;;;6.78;;
36457;SDS011;22480;50.546;12.292;2023-06-19T08:36:05;10.48;;;6.63;;
36457;SDS011;22480;50.546;12.292;2023-06-19T08:38:30;8.20;;;6.55;;
36457;SDS011;22480;50.546;12.292;2023-06-19T08:40:56;7.45;;;6.65;;
36457;SDS011;22480;50.546;12.292;2023-06-19T08:43:22;9.82;;;6.18;;
36457;SDS011;22480;50.546;12.292;2023-06-19T08:45:56;7.55;;;6.75;;
36457;SDS011;22480;50.546;12.292;2023-06-19T08:48:26;7.35;;;6.55;;
36457;SDS011;22480;50.546;12.292;2023-06-19T08:50:52;7.05;;;6.35;;
36457;SDS011;22480;50.546;12.292;2023-06-19T08:53:20;9.45;;;7.40;;
36457;SDS011;22480;50.546;12.292;2023-06-19T08:55:45;7.80;;;6.72;;
36457;SDS011;22480;50.546;12.292;2023-06-19T08:58:11;9.07;;;7.18;;
36457;SDS011;22480;50.546;12.292;2023-06-19T09:00:46;8.30;;;7.50;;
36457;SDS011;22480;50.546;12.292;2023-06-19T09:03:18;8.65;;;7.05;;
36457;SDS011;22480;50.546;12.292;2023-06-19T09:05:46;8.60;;;7.38;;
36457;SDS011;22480;50.546;12.292;2023-06-19T09:08:16;9.60;;;7.32;;
36457;SDS011;22480;50.546;12.292;2023-06-19T09:11:05;7.85;;;7.05;;
36457;SDS011;22480;50.546;12.292;2023-06-19T09:13:30;8.73;;;7.28;;
36457;SDS011;22480;50.546;12.292;2023-06-19T09:16:02;12.25;;;6.93;;
36457;SDS011;22480;50.546;12.292;2023-06-19T09:18:30;7.78;;;7.03;;
36457;SDS011;22480;50.546;12.292;2023-06-19T09:20:56;11.85;;;7.43;;
36457;SDS011;22480;50.546;12.292;2023-06-19T09:23:23;12.88;;;9.13;;
36457;SDS011;22480;50.546;12.292;2023-06-19T09:25:56;18.47;;;14.40;;
36457;SDS011;22480;50.546;12.292;2023-06-19T09:28:23;12.13;;;8.00;;
36457;SDS011;22480;50.546;12.292;2023-06-19T09:31:00;8.65;;;7.43;;
36457;SDS011;22480;50.546;12.292;2023-06-19T09:33:28;9.75;;;7.68;;
36457;SDS011;22480;50.546;12.292;2023-06-19T09:35:55;8.98;;;8.07;;
36457;SDS011;22480;50.546;12.292;2023-06-19T09:38:26;8.35;;;7.18;;
36457;SDS011;22480;50.546;12.292;2023-06-19T09:40:53;8.95;;;7.85;;
36457;SDS011;22480;50.546;12.292;2023-06-19T09:43:24;11.25;;;7.88;;
36457;SDS011;22480;50.546;12.292;2023-06-19T09:45:55;9.60;;;7.35;;
36457;SDS011;22480;50.546;12.292;2023-06-19T09:48:27;9.67;;;7.50;;
36457;SDS011;22480;50.546;12.292;2023-06-19T09:50:59;7.90;;;7.10;;
36457;SDS011;22480;50.546;12.292;2023-06-19T09:53:46;11.15;;;7.32;;
36457;SDS011;22480;50.546;12.292;2023-06-19T09:56:13;8.10;;;7.30;;
36457;SDS011;22480;50.546;12.292;2023-06-19T09:58:40;10.35;;;7.18;;
36457;SDS011;22480;50.546;12.292;2023-06-19T10:01:08;9.20;;;6.97;;
36457;SDS011;22480;50.546;12.292;2023-06-19T10:03:35;7.95;;;7.25;;
36457;SDS011;22480;50.546;12.292;2023-06-19T10:06:02;10.73;;;7.57;;
36457;SDS011;22480;50.546;12.292;2023-06-19T10:10:56;8.30;;;7.35;;
36457;SDS011;22480;50.546;12.292;2023-06-19T10:13:30;9.48;;;8.48;;
36457;SDS011;22480;50.546;12.292;2023-06-19T10:16:07;8.40;;;7.70;;
36457;SDS011;22480;50.546;12.292;2023-06-19T10:18:44;8.50;;;7.63;;
36457;SDS011;22480;50.546;12.292;2023-06-19T10:21:18;8.35;;;7.65;;
36457;SDS011;22480;50.546;12.292;2023-06-19T10:23:52;8.15;;;7.35;;
36457;SDS011;22480;50.546;12.292;2023-06-19T10:26:31;9.15;;;7.32;;
36457;SDS011;22480;50.546;12.292;2023-06-19T10:28:58;10.52;;;6.47;;
36457;SDS011;22480;50.546;12.292;2023-06-19T10:31:24;8.68;;;7.35;;
36457;SDS011;22480;50.546;12.292;2023-06-19T10:33:49;8.82;;;7.25;;
36457;SDS011;22480;50.546;12.292;2023-06-19T10:38:43;9.50;;;7.63;;
36457;SDS011;22480;50.546;12.292;2023-06-19T10:41:19;8.00;;;7.28;;
36457;SDS011;22480;50.546;12.292;2023-06-19T10:43:56;8.35;;;7.55;;
36457;SDS011;22480;50.546;12.292;2023-06-19T10:46:23;8.50;;;7.28;;
36457;SDS011;22480;50.546;12.292;2023-06-19T10:48:54;11.40;;;7.68;;
36457;SDS011;22480;50.546;12.292;2023-06-19T10:51:24;8.85;;;7.82;;
36457;SDS011;22480;50.546;12.292;2023-06-19T10:53:50;9.32;;;7.35;;
36457;SDS011;22480;50.546;12.292;2023-06-19T10:56:20;9.63;;;8.13;;
36457;SDS011;22480;50.546;12.292;2023-06-19T10:58:47;8.68;;;7.47;;
36457;SDS011;22480;50.546;12.292;2023-06-19T11:01:13;8.95;;;7.72;;
36457;SDS011;22480;50.546;12.292;2023-06-19T11:03:38;7.88;;;7.07;;
36457;SDS011;22480;50.546;12.292;2023-06-19T11:06:04;8.63;;;7.22;;
36457;SDS011;22480;50.546;12.292;2023-06-19T11:08:30;8.40;;;7.50;;
36457;SDS011;22480;50.546;12.292;2023-06-19T11:10:56;9.07;;;7.22;;
36457;SDS011;22480;50.546;12.292;2023-06-19T11:13:22;9.02;;;7.10;;
36457;SDS011;22480;50.546;12.292;2023-06-19T11:15:48;8.10;;;7.32;;
36457;SDS011;22480;50.546;12.292;2023-06-19T11:18:15;7.30;;;6.55;;
36457;SDS011;22480;50.546;12.292;2023-06-19T11:20:45;8.20;;;6.80;;
36457;SDS011;22480;50.546;12.292;2023-06-19T11:23:12;9.38;;;7.32;;
36457;SDS011;22480;50.546;12.292;2023-06-19T11:25:38;7.75;;;6.93;;
36457;SDS011;22480;50.546;12.292;2023-06-19T11:28:04;10.02;;;7.03;;
36457;SDS011;22480;50.546;12.292;2023-06-19T11:30:40;9.93;;;7.20;;
36457;SDS011;22480;50.546;12.292;2023-06-19T11:33:19;20.58;;;7.93;;
36457;SDS011;22480;50.546;12.292;2023-06-19T11:35:49;10.47;;;6.77;;
36457;SDS011;22480;50.546;12.292;2023-06-19T11:38:25;10.10;;;7.20;;
36457;SDS011;22480;50.546;12.292;2023-06-19T11:40:51;10.45;;;6.68;;
36457;SDS011;22480;50.546;12.292;2023-06-19T11:46:02;9.57;;;6.75;;
36457;SDS011;22480;50.546;12.292;2023-06-19T11:48:28;8.02;;;7.13;;
36457;SDS011;22480;50.546;12.292;2023-06-19T11:50:54;11.23;;;6.80;;
36457;SDS011;22480;50.546;12.292;2023-06-19T11:53:21;8.77;;;6.45;;
36457;SDS011;22480;50.546;12.292;2023-06-19T11:55:48;7.57;;;6.47;;
36457;SDS011;22480;50.546;12.292;2023-06-19T11:58:15;7.93;;;6.60;;
36457;SDS011;22480;50.546;12.292;2023-06-19T12:00:41;8.45;;;6.80;;
36457;SDS011;22480;50.546;12.292;2023-06-19T12:03:08;9.32;;;6.60;;
36457;SDS011;22480;50.546;12.292;2023-06-19T12:05:34;11.32;;;7.15;;
36457;SDS011;22480;50.546;12.292;2023-06-19T12:08:00;8.10;;;7.30;;
36457;SDS011;22480;50.546;12.292;2023-06-19T12:10:28;8.70;;;6.63;;
36457;SDS011;22480;50.546;12.292;2023-06-19T12:12:53;11.55;;;6.68;;
36457;SDS011;22480;50.546;12.292;2023-06-19T12:15:19;9.48;;;6.82;;
36457;SDS011;22480;50.546;12.292;2023-06-19T12:17:45;6.85;;;6.15;;
36457;SDS011;22480;50.546;12.292;2023-06-19T12:20:11;10.15;;;6.53;;
36457;SDS011;22480;50.546;12.292;2023-06-19T12:22:39;5.88;;;5.28;;
36457;SDS011;22480;50.546;12.292;2023-06-19T12:25:05;6.25;;;5.40;;
36457;SDS011;22480;50.546;12.292;2023-06-19T12:27:31;7.50;;;5.40;;
36457;SDS011;22480;50.546;12.292;2023-06-19T12:29:57;8.13;;;5.57;;
36457;SDS011;22480;50.546;12.292;2023-06-19T12:32:23;6.68;;;5.43;;
36457;SDS011;22480;50.546;12.292;2023-06-19T12:34:49;8.02;;;5.43;;
36457;SDS011;22480;50.546;12.292;2023-06-19T12:37:19;5.80;;;4.63;;
36457;SDS011;22480;50.546;12.292;2023-06-19T12:39:46;6.57;;;4.53;;
36457;SDS011;22480;50.546;12.292;2023-06-19T12:42:13;7.32;;;4.60;;
36457;SDS011;22480;50.546;12.292;2023-06-19T12:44:39;4.75;;;4.30;;
36457;SDS011;22480;50.546;12.292;2023-06-19T12:47:05;5.97;;;4.57;;
36457;SDS011;22480;50.546;12.292;2023-06-19T12:49:31;5.25;;;4.72;;
36457;SDS011;22480;50.546;12.292;2023-06-19T12:51:57;5.15;;;3.60;;
36457;SDS011;22480;50.546;12.292;2023-06-19T12:54:23;4.95;;;4.50;;
36457;SDS011;22480;50.546;12.292;2023-06-19T12:56:49;4.57;;;4.18;;
36457;SDS011;22480;50.546;12.292;2023-06-19T12:59:15;5.13;;;4.20;;
36457;SDS011;22480;50.546;12.292;2023-06-19T13:01:41;3.92;;;3.63;;
36457;SDS011;22480;50.546;12.292;2023-06-19T13:04:07;6.22;;;4.28;;
36457;SDS011;22480;50.546;12.292;2023-06-19T13:06:33;4.15;;;3.70;;
36457;SDS011;22480;50.546;12.292;2023-06-19T13:09:00;3.67;;;3.38;;
36457;SDS011;22480;50.546;12.292;2023-06-19T13:11:27;3.83;;;3.30;;
36457;SDS011;22480;50.546;12.292;2023-06-19T13:13:52;6.15;;;4.07;;
36457;SDS011;22480;50.546;12.292;2023-06-19T13:16:18;3.70;;;3.17;;
36457;SDS011;22480;50.546;12.292;2023-06-19T13:18:44;5.40;;;3.50;;
36457;SDS011;22480;50.546;12.292;2023-06-19T13:21:13;4.50;;;4.00;;
36457;SDS011;22480;50.546;12.292;2023-06-19T13:23:40;6.20;;;3.97;;
36457;SDS011;22480;50.546;12.292;2023-06-19T13:26:06;4.03;;;3.67;;
36457;SDS011;22480;50.546;12.292;2023-06-19T13:28:32;4.88;;;3.42;;
36457;SDS011;22480;50.546;12.292;2023-06-19T13:30:57;4.10;;;3.70;;
36457;SDS011;22480;50.546;12.292;2023-06-19T13:33:23;3.83;;;3.35;;
36457;SDS011;22480;50.546;12.292;2023-06-19T13:35:50;5.18;;;3.53;;
36457;SDS011;22480;50.546;12.292;2023-06-19T13:38:16;4.75;;;3.47;;
36457;SDS011;22480;50.546;12.292;2023-06-19T13:40:42;4.80;;;4.22;;
36457;SDS011;22480;50.546;12.292;2023-06-19T13:43:08;4.60;;;3.30;;
36457;SDS011;22480;50.546;12.292;2023-06-19T13:45:34;5.13;;;3.45;;
36457;SDS011;22480;50.546;12.292;2023-06-19T13:48:00;3.47;;;3.17;;
36457;SDS011;22480;50.546;12.292;2023-06-19T13:50:26;5.50;;;3.42;;
36457;SDS011;22480;50.546;12.292;2023-06-19T13:52:52;4.38;;;3.92;;
36457;SDS011;22480;50.546;12.292;2023-06-19T13:55:19;4.82;;;3.40;;
36457;SDS011;22480;50.546;12.292;2023-06-19T13:57:45;3.75;;;3.28;;
36457;SDS011;22480;50.546;12.292;2023-06-19T14:00:11;3.50;;;3.20;;
36457;SDS011;22480;50.546;12.292;2023-06-19T14:02:40;3.67;;;3.30;;
36457;SDS011;22480;50.546;12.292;2023-06-19T14:05:09;4.35;;;3.20;;
36457;SDS011;22480;50.546;12.292;2023-06-19T14:07:36;3.88;;;3.33;;
36457;SDS011;22480;50.546;12.292;2023-06-19T14:10:02;4.40;;;3.35;;
36457;SDS011;22480;50.546;12.292;2023-06-19T14:12:29;7.65;;;3.75;;
36457;SDS011;22480;50.546;12.292;2023-06-19T14:14:56;4.10;;;3.58;;
36457;SDS011;22480;50.546;12.292;2023-06-19T14:17:22;4.25;;;3.85;;
36457;SDS011;22480;50.546;12.292;2023-06-19T14:19:48;4.07;;;3.20;;
36457;SDS011;22480;50.546;12.292;2023-06-19T14:22:14;4.20;;;3.55;;
36457;SDS011;22480;50.546;12.292;2023-06-19T14:24:40;5.00;;;3.53;;
36457;SDS011;22480;50.546;12.292;2023-06-19T14:27:05;5.13;;;3.67;;
36457;SDS011;22480;50.546;12.292;2023-06-19T14:29:31;3.67;;;3.38;;
36457;SDS011;22480;50.546;12.292;2023-06-19T14:31:57;3.58;;;3.28;;
36457;SDS011;22480;50.546;12.292;2023-06-19T14:34:23;5.82;;;3.70;;
36457;SDS011;22480;50.546;12.292;2023-06-19T14:36:48;7.13;;;3.85;;
36457;SDS011;22480;50.546;12.292;2023-06-19T14:39:14;4.75;;;3.90;;
36457;SDS011;22480;50.546;12.292;2023-06-19T14:41:40;4.60;;;4.20;;
36457;SDS011;22480;50.546;12.292;2023-06-19T14:44:05;4.65;;;4.00;;
36457;SDS011;22480;50.546;12.292;2023-06-19T14:46:31;4.30;;;3.92;;